Time;durP1;ratioP1;P1;durP2;ratioP2;P2;SDS_P1;SDS_P2;PMS_P1;PMS_P2;Temp;Humidity;BMP_temperature;BMP_pressure;BME280_temperature;BME280_humidity;BME280_pressure;Samples;Min_cycle;Max_cycle;Signal;HPM_P1;HPM_P2
2022/01/07 00:00:59;;;;;;;;;;;;;;;;;;5136631;27;19920;-75
2022/01/07 00:03:25;;;;;;;;;;;;;;;;;;5118373;27;19919;-75
2022/01/07 00:05:50;;;;;;;;;;;;;;;;;;5135982;27;19916;-75
2022/01/07 00:08:16;;;;;;;;;;;;;;;;;;5136249;27;19919;-75
2022/01/07 00:10:41;;;;;;;;;;;;;;;;;;5118158;27;20376;-74
2022/01/07 00:13:07;;;;;;;;;;;;;;;;;;5136605;27;19915;-75
2022/01/07 00:15:32;;;;;;;;;;;;;;;;;;5118081;27;20009;-75
2022/01/07 00:17:58;;;;;;;;;;;;;;;;;;5117762;27;19921;-75
2022/01/07 00:20:24;;;;;;;;;;;;;;;;;;5136045;27;19975;-75
2022/01/07 00:22:49;;;;;;;;;;;;;;;;;;5136311;27;19915;-75
2022/01/07 00:25:15;;;;;;;;;;;;;;;;;;5136119;27;20365;-75
2022/01/07 00:27:40;;;;;;;;;;;;;;;;;;5116025;27;19976;-75
2022/01/07 00:30:07;;;;;;;;;;;;;;;;;;5117610;27;20383;-75
2022/01/07 00:32:32;;;;;;;;;;;;;;;;;;5136170;27;20014;-75
2022/01/07 00:34:57;;;;;;;;;;;;;;;;;;5135834;27;19961;-75
2022/01/07 00:37:23;;;;;;;;;;;;;;;;;;5135859;27;20254;-75
2022/01/07 00:39:49;;;;;;;;;;;;;;;;;;5135358;27;20388;-75
2022/01/07 00:42:14;;;;;;;;;;;;;;;;;;5135989;27;19967;-74
2022/01/07 00:44:40;;;;;;;;;;;;;;;;;;5135794;27;19919;-75
2022/01/07 00:47:05;;;;;;;;;;;;;;;;;;5135423;27;19924;-75
2022/01/07 00:49:30;;;;;;;;;;;;;;;;;;5135293;27;20324;-74
2022/01/07 00:51:58;;;;;;;;;;;;;;;;;;5135116;27;20367;-75
2022/01/07 00:54:23;;;;;;;;;;;;;;;;;;5100372;27;19958;-75
2022/01/07 00:56:48;;;;;;;;;;;;;;;;;;5117142;27;20315;-75
2022/01/07 00:59:14;;;;;;;;;;;;;;;;;;5135309;27;20403;-75
2022/01/07 01:01:39;;;;;;;;;;;;;;;;;;5117190;27;20361;-74
2022/01/07 01:04:04;;;;;;;;;;;;;;;;;;5134947;27;20308;-75
2022/01/07 01:06:30;;;;;;;;;;;;;;;;;;5135268;27;19918;-75
2022/01/07 01:08:55;;;;;;;;;;;;;;;;;;5135429;27;19926;-75
2022/01/07 01:11:20;;;;;;;;;;;;;;;;;;5135480;27;19915;-75
2022/01/07 01:13:46;;;;;;;;;;;;;;;;;;5135313;27;19922;-75
2022/01/07 01:16:11;;;;;;;;;;;;;;;;;;5135126;27;19957;-75
2022/01/07 01:18:36;;;;;;;;;;;;;;;;;;5134971;27;19915;-75
2022/01/07 01:21:02;;;;;;;;;;;;;;;;;;5135268;27;20380;-75
2022/01/07 01:23:27;;;;;;;;;;;;;;;;;;5134859;27;19927;-75
2022/01/07 01:25:52;;;;;;;;;;;;;;;;;;5135153;27;19994;-75
2022/01/07 01:28:18;;;;;;;;;;;;;;;;;;5135123;27;20379;-75
2022/01/07 01:30:43;;;;;;;;;;;;;;;;;;5135011;27;19915;-75
2022/01/07 01:33:11;;;;;;;;;;;;;;;;;;5116688;27;19916;-75
2022/01/07 01:35:37;;;;;;;;;;;;;;;;;;5134889;27;19959;-75
2022/01/07 01:38:02;;;;;;;;;;;;;;;;;;5116465;27;20405;-75
2022/01/07 01:40:28;;;;;;;;;;;;;;;;;;5133499;27;20010;-75
2022/01/07 01:42:53;;;;;;;;;;;;;;;;;;5135010;27;19916;-75
2022/01/07 01:45:19;;;;;;;;;;;;;;;;;;5134456;27;19922;-75
2022/01/07 01:47:44;;;;;;;;;;;;;;;;;;5134415;27;19955;-75
2022/01/07 01:50:13;;;;;;;;;;;;;;;;;;5133775;27;21586;-75
2022/01/07 01:52:43;;;;;;;;;;;;;;;;;;5134689;27;19927;-75
2022/01/07 01:55:08;;;;;;;;;;;;;;;;;;5134181;28;20268;-75
2022/01/07 01:57:33;;;;;;;;;;;;;;;;;;5134818;27;19915;-75
2022/01/07 01:59:59;;;;;;;;;;;;;;;;;;5135244;28;19919;-75
2022/01/07 02:02:24;;;;;;;;;;;;;;;;;;5134759;28;20356;-75
2022/01/07 02:04:49;;;;;;;;;;;;;;;;;;5115426;28;19918;-75
2022/01/07 02:07:15;;;;;;;;;;;;;;;;;;5116117;28;19923;-75
2022/01/07 02:09:40;;;;;;;;;;;;;;;;;;5099315;28;19928;-75
2022/01/07 02:12:06;;;;;;;;;;;;;;;;;;5134430;28;19992;-75
2022/01/07 02:14:34;;;;;;;;;;;;;;;;;;5134589;28;20366;-75
2022/01/07 02:17:09;;;;;;;;;;;;;;;;;;5116170;28;19915;-75
2022/01/07 02:19:35;;;;;;;;;;;;;;;;;;5134522;28;19916;-75
2022/01/07 02:22:01;;;;;;;;;;;;;;;;;;5116224;28;19922;-75
2022/01/07 02:24:26;;;;;;;;;;;;;;;;;;5134511;28;19915;-75
2022/01/07 02:26:52;;;;;;;;;;;;;;;;;;5116085;28;19915;-75
2022/01/07 02:29:17;;;;;;;;;;;;;;;;;;5134263;28;19920;-75
2022/01/07 02:31:42;;;;;;;;;;;;;;;;;;5134230;28;19922;-75
2022/01/07 02:34:07;;;;;;;;;;;;;;;;;;5133414;28;19924;-76
2022/01/07 02:36:33;;;;;;;;;;;;;;;;;;5115759;27;19916;-75
2022/01/07 02:38:58;;;;;;;;;;;;;;;;;;5134243;28;19915;-75
2022/01/07 02:41:23;;;;;;;;;;;;;;;;;;5116049;28;20006;-75
2022/01/07 02:43:49;;;;;;;;;;;;;;;;;;5134433;28;19916;-75
2022/01/07 02:46:14;;;;;;;;;;;;;;;;;;5115559;27;19979;-76
2022/01/07 02:48:39;;;;;;;;;;;;;;;;;;5133805;28;19923;-75
2022/01/07 02:51:05;;;;;;;;;;;;;;;;;;5135257;27;19968;-75
2022/01/07 02:53:30;;;;;;;;;;;;;;;;;;5137971;27;20246;-75
2022/01/07 02:55:55;;;;;;;;;;;;;;;;;;5119635;27;19915;-75
2022/01/07 02:58:20;;;;;;;;;;;;;;;;;;5137908;27;19911;-75
2022/01/07 03:00:46;;;;;;;;;;;;;;;;;;5137817;27;20035;-75
2022/01/07 03:03:11;;;;;;;;;;;;;;;;;;5137381;27;19915;-76
2022/01/07 03:05:39;;;;;;;;;;;;;;;;;;5137878;27;19915;-75
2022/01/07 03:08:04;;;;;;;;;;;;;;;;;;5137910;27;20283;-75
2022/01/07 03:10:30;;;;;;;;;;;;;;;;;;5137629;27;19922;-76
2022/01/07 03:12:55;;;;;;;;;;;;;;;;;;5137117;27;19927;-75
2022/01/07 03:15:21;;;;;;;;;;;;;;;;;;5137650;27;19916;-75
2022/01/07 03:17:46;;;;;;;;;;;;;;;;;;5137544;27;20402;-76
2022/01/07 03:20:14;;;;;;;;;;;;;;;;;;5137507;27;19915;-75
2022/01/07 03:22:39;;;;;;;;;;;;;;;;;;5137398;27;19916;-75
2022/01/07 03:25:05;;;;;;;;;;;;;;;;;;5119136;27;20341;-75
2022/01/07 03:27:30;;;;;;;;;;;;;;;;;;5137021;27;19919;-75
2022/01/07 03:29:56;;;;;;;;;;;;;;;;;;5137434;27;19915;-75
2022/01/07 03:32:21;;;;;;;;;;;;;;;;;;5141011;27;19915;-76
2022/01/07 03:34:46;;;;;;;;;;;;;;;;;;5136798;27;19915;-75
2022/01/07 03:37:12;;;;;;;;;;;;;;;;;;5136855;27;20283;-75
2022/01/07 03:39:37;;;;;;;;;;;;;;;;;;5137365;27;19923;-75
2022/01/07 03:42:03;;;;;;;;;;;;;;;;;;5136690;27;20002;-76
2022/01/07 03:44:28;;;;;;;;;;;;;;;;;;5137233;27;20026;-75
2022/01/07 03:46:53;;;;;;;;;;;;;;;;;;5136432;27;19998;-76
2022/01/07 03:49:19;;;;;;;;;;;;;;;;;;5136846;27;19930;-75
2022/01/07 03:51:44;;;;;;;;;;;;;;;;;;5118673;27;19966;-75
2022/01/07 03:54:09;;;;;;;;;;;;;;;;;;5136660;27;19918;-75
2022/01/07 03:56:35;;;;;;;;;;;;;;;;;;5136890;27;20424;-75
2022/01/07 03:59:00;;;;;;;;;;;;;;;;;;5136536;27;19975;-75
2022/01/07 04:01:25;;;;;;;;;;;;;;;;;;5136485;27;19915;-75
2022/01/07 04:03:51;;;;;;;;;;;;;;;;;;5117370;27;20061;-75
2022/01/07 04:06:20;;;;;;;;;;;;;;;;;;5117848;27;19916;-75
2022/01/07 04:08:45;;;;;;;;;;;;;;;;;;5136354;27;20392;-75
2022/01/07 04:11:11;;;;;;;;;;;;;;;;;;5116616;27;19916;-75
2022/01/07 04:13:36;;;;;;;;;;;;;;;;;;5115803;28;19916;-75
2022/01/07 04:16:01;;;;;;;;;;;;;;;;;;5117279;27;19923;-76
2022/01/07 04:18:27;;;;;;;;;;;;;;;;;;5136037;27;19919;-75
2022/01/07 04:20:52;;;;;;;;;;;;;;;;;;5135855;27;20010;-76
2022/01/07 04:23:17;;;;;;;;;;;;;;;;;;5136348;27;19955;-75
2022/01/07 04:25:43;;;;;;;;;;;;;;;;;;5136279;27;20006;-75
2022/01/07 04:28:08;;;;;;;;;;;;;;;;;;5136108;27;19919;-75
2022/01/07 04:30:36;;;;;;;;;;;;;;;;;;5135446;27;19916;-75
2022/01/07 04:33:02;;;;;;;;;;;;;;;;;;5136166;27;19923;-75
2022/01/07 04:35:28;;;;;;;;;;;;;;;;;;5136065;27;20352;-75
2022/01/07 04:37:53;;;;;;;;;;;;;;;;;;5135953;27;19951;-75
2022/01/07 04:40:19;;;;;;;;;;;;;;;;;;5135746;27;20365;-75
2022/01/07 04:42:45;;;;;;;;;;;;;;;;;;5117580;27;20368;-76
2022/01/07 04:45:11;;;;;;;;;;;;;;;;;;5134791;27;19936;-76
2022/01/07 04:47:37;;;;;;;;;;;;;;;;;;5133603;27;19919;-76
2022/01/07 04:50:04;;;;;;;;;;;;;;;;;;5117603;27;19926;-75
2022/01/07 04:52:29;;;;;;;;;;;;;;;;;;5135417;27;20345;-75
2022/01/07 04:54:54;;;;;;;;;;;;;;;;;;5135881;27;19926;-75
2022/01/07 04:57:20;;;;;;;;;;;;;;;;;;5135409;27;19916;-76
2022/01/07 04:59:45;;;;;;;;;;;;;;;;;;5135115;27;19965;-76
2022/01/07 05:02:10;;;;;;;;;;;;;;;;;;5134795;27;19915;-75
2022/01/07 05:04:36;;;;;;;;;;;;;;;;;;5135220;27;20014;-75
2022/01/07 05:07:01;;;;;;;;;;;;;;;;;;5135350;27;19916;-75
2022/01/07 05:09:26;;;;;;;;;;;;;;;;;;5135236;27;19916;-75
2022/01/07 05:11:52;;;;;;;;;;;;;;;;;;5134970;27;19965;-75
2022/01/07 05:14:17;;;;;;;;;;;;;;;;;;5134628;27;20377;-76
2022/01/07 05:16:43;;;;;;;;;;;;;;;;;;5116765;27;19920;-76
2022/01/07 05:19:09;;;;;;;;;;;;;;;;;;5135189;27;19976;-76
2022/01/07 05:21:34;;;;;;;;;;;;;;;;;;5135297;27;19978;-76
2022/01/07 05:24:00;;;;;;;;;;;;;;;;;;5116933;27;19922;-76
2022/01/07 05:26:26;;;;;;;;;;;;;;;;;;5116472;27;19926;-76
2022/01/07 05:28:51;;;;;;;;;;;;;;;;;;5135003;27;19915;-76
2022/01/07 05:31:20;;;;;;;;;;;;;;;;;;5134984;27;19924;-76
2022/01/07 05:33:45;;;;;;;;;;;;;;;;;;5134980;27;20357;-75
2022/01/07 05:36:11;;;;;;;;;;;;;;;;;;5134987;27;19923;-75
2022/01/07 05:38:36;;;;;;;;;;;;;;;;;;5135113;27;19918;-75
2022/01/07 05:41:01;;;;;;;;;;;;;;;;;;5134274;27;19922;-75
2022/01/07 05:43:28;;;;;;;;;;;;;;;;;;5116420;27;19951;-76
2022/01/07 05:45:53;;;;;;;;;;;;;;;;;;5135045;27;20276;-76
2022/01/07 05:48:18;;;;;;;;;;;;;;;;;;5134512;27;19920;-75
2022/01/07 05:50:44;;;;;;;;;;;;;;;;;;5134432;27;19915;-76
2022/01/07 05:53:10;;;;;;;;;;;;;;;;;;5134811;28;20352;-75
2022/01/07 05:55:35;;;;;;;;;;;;;;;;;;5115972;28;20000;-75
2022/01/07 05:58:00;;;;;;;;;;;;;;;;;;5134611;27;20322;-76
2022/01/07 06:00:26;;;;;;;;;;;;;;;;;;5134027;28;20470;-76
2022/01/07 06:02:51;;;;;;;;;;;;;;;;;;5134622;28;19919;-75
2022/01/07 06:05:16;;;;;;;;;;;;;;;;;;5134582;28;19915;-76
2022/01/07 06:07:42;;;;;;;;;;;;;;;;;;5134519;27;19915;-76
2022/01/07 06:10:07;;;;;;;;;;;;;;;;;;5134695;28;19995;-76
2022/01/07 06:12:33;;;;;;;;;;;;;;;;;;5134445;28;19920;-76
2022/01/07 06:14:58;;;;;;;;;;;;;;;;;;5134681;28;19922;-76
2022/01/07 06:17:24;;;;;;;;;;;;;;;;;;5134285;27;20373;-76
2022/01/07 06:19:49;;;;;;;;;;;;;;;;;;5134447;28;19958;-76
2022/01/07 06:22:15;;;;;;;;;;;;;;;;;;5134534;28;20257;-76
2022/01/07 06:24:40;;;;;;;;;;;;;;;;;;5135011;27;19919;-75
2022/01/07 06:27:05;;;;;;;;;;;;;;;;;;5138197;27;19955;-76
2022/01/07 06:29:31;;;;;;;;;;;;;;;;;;5138248;27;19920;-76
2022/01/07 06:31:56;;;;;;;;;;;;;;;;;;5137949;27;19919;-76
2022/01/07 06:34:23;;;;;;;;;;;;;;;;;;5138557;27;19934;-76
2022/01/07 06:36:48;;;;;;;;;;;;;;;;;;5138364;27;20010;-76
2022/01/07 06:39:14;;;;;;;;;;;;;;;;;;5138163;27;19971;-76
2022/01/07 06:41:40;;;;;;;;;;;;;;;;;;5119793;27;19916;-76
2022/01/07 06:44:05;;;;;;;;;;;;;;;;;;5138211;27;19942;-76
2022/01/07 06:46:30;;;;;;;;;;;;;;;;;;5137671;27;19915;-76
2022/01/07 06:48:56;;;;;;;;;;;;;;;;;;5119911;27;19923;-76
2022/01/07 06:51:21;;;;;;;;;;;;;;;;;;5138118;27;20265;-76
2022/01/07 06:53:46;;;;;;;;;;;;;;;;;;5138222;27;20007;-75
2022/01/07 06:56:12;;;;;;;;;;;;;;;;;;5138019;27;19921;-76
2022/01/07 06:58:37;;;;;;;;;;;;;;;;;;5137281;27;20026;-75
2022/01/07 07:01:03;;;;;;;;;;;;;;;;;;5137991;27;20001;-75
2022/01/07 07:03:28;;;;;;;;;;;;;;;;;;5137992;27;19915;-75
2022/01/07 07:05:53;;;;;;;;;;;;;;;;;;5138022;27;19962;-75
2022/01/07 07:08:19;;;;;;;;;;;;;;;;;;5137803;27;20308;-75
2022/01/07 07:10:44;;;;;;;;;;;;;;;;;;5119307;27;20002;-74
2022/01/07 07:13:09;;;;;;;;;;;;;;;;;;5119175;27;19959;-74
2022/01/07 07:15:36;;;;;;;;;;;;;;;;;;5136682;27;19969;-75
2022/01/07 07:18:01;;;;;;;;;;;;;;;;;;5137692;27;19923;-74
2022/01/07 07:20:26;;;;;;;;;;;;;;;;;;5137361;27;19915;-75
2022/01/07 07:22:52;;;;;;;;;;;;;;;;;;5137638;27;19916;-74
2022/01/07 07:25:18;;;;;;;;;;;;;;;;;;5119041;27;19915;-75
2022/01/07 07:27:44;;;;;;;;;;;;;;;;;;5137404;27;19915;-75
2022/01/07 07:30:10;;;;;;;;;;;;;;;;;;5137332;27;20349;-75
2022/01/07 07:32:36;;;;;;;;;;;;;;;;;;5137272;27;19923;-75
2022/01/07 07:36:26;;;;;;;;;;;;;;;;;;5137437;27;19916;-75
2022/01/07 07:37:48;;;;;;;;;;;;;;;;;;5136647;27;19959;-74
2022/01/07 07:40:13;;;;;;;;;;;;;;;;;;5136600;27;19962;-74
2022/01/07 07:42:39;;;;;;;;;;;;;;;;;;5137336;27;20019;-74
2022/01/07 07:45:08;;;;;;;;;;;;;;;;;;5137127;27;19915;-74
2022/01/07 07:47:34;;;;;;;;;;;;;;;;;;5136938;27;20002;-74
2022/01/07 07:50:00;;;;;;;;;;;;;;;;;;5118323;27;19919;-74
2022/01/07 07:52:25;;;;;;;;;;;;;;;;;;5136951;27;19920;-74
2022/01/07 07:54:51;;;;;;;;;;;;;;;;;;5136787;27;20368;-74
2022/01/07 07:57:16;;;;;;;;;;;;;;;;;;5136762;27;20419;-74
2022/01/07 07:59:41;;;;;;;;;;;;;;;;;;5136919;27;19916;-74
2022/01/07 08:02:09;;;;;;;;;;;;;;;;;;5136461;27;19923;-74
2022/01/07 08:04:34;;;;;;;;;;;;;;;;;;5136881;27;20356;-73
2022/01/07 08:06:59;;;;;;;;;;;;;;;;;;5136565;27;19915;-74
2022/01/07 08:09:26;;;;;;;;;;;;;;;;;;5134947;27;19926;-74
2022/01/07 08:11:53;;;;;;;;;;;;;;;;;;5136394;27;19930;-74
2022/01/07 08:17:04;;;;;;;;;;;;;;;;;;5117533;27;19971;-73
2022/01/07 08:19:29;;;;;;;;;;;;;;;;;;5136496;27;19916;-72
2022/01/07 08:21:54;;;;;;;;;;;;;;;;;;5136264;27;19925;-74
2022/01/07 08:24:20;;;;;;;;;;;;;;;;;;5136233;27;19939;-73
2022/01/07 08:26:45;;;;;;;;;;;;;;;;;;5117461;27;19916;-73
2022/01/07 08:29:12;;;;;;;;;;;;;;;;;;5135985;27;19923;-73
2022/01/07 08:36:50;;;;;;;;;;;;;;;;;;5136079;27;20006;-73
2022/01/07 08:39:15;;;;;;;;;;;;;;;;;;5136127;27;19958;-73
2022/01/07 08:41:42;;;;;;;;;;;;;;;;;;5136047;27;19919;-73
2022/01/07 08:44:08;;;;;;;;;;;;;;;;;;5135612;27;19915;-74
2022/01/07 08:46:33;;;;;;;;;;;;;;;;;;5135648;27;20035;-73
2022/01/07 08:48:59;;;;;;;;;;;;;;;;;;5134662;27;20019;-73
2022/01/07 08:51:26;;;;;;;;;;;;;;;;;;5135322;27;20413;-73
2022/01/07 08:53:51;;;;;;;;;;;;;;;;;;5135405;27;20048;-73
2022/01/07 08:56:17;;;;;;;;;;;;;;;;;;5135572;27;19964;-73
2022/01/07 08:58:42;;;;;;;;;;;;;;;;;;5117116;27;19915;-72
2022/01/07 09:01:07;;;;;;;;;;;;;;;;;;5135508;27;19923;-73
2022/01/07 09:03:33;;;;;;;;;;;;;;;;;;5135407;27;20006;-73
2022/01/07 09:05:58;;;;;;;;;;;;;;;;;;5135189;27;19919;-73
2022/01/07 09:08:23;;;;;;;;;;;;;;;;;;5135304;27;20006;-73
2022/01/07 09:10:49;;;;;;;;;;;;;;;;;;5134879;27;19919;-74
2022/01/07 09:13:14;;;;;;;;;;;;;;;;;;5135480;27;19915;-72
2022/01/07 09:15:40;;;;;;;;;;;;;;;;;;5135124;27;19922;-73
2022/01/07 09:18:10;;;;;;;;;;;;;;;;;;5116727;27;19919;-73
2022/01/07 09:20:42;;;;;;;;;;;;;;;;;;5135428;27;20340;-73
2022/01/07 09:23:08;;;;;;;;;;;;;;;;;;5116705;27;19923;-73
2022/01/07 09:25:34;;;;;;;;;;;;;;;;;;5135073;27;19915;-72
2022/01/07 09:27:59;;;;;;;;;;;;;;;;;;5135223;27;20013;-72
2022/01/07 09:30:25;;;;;;;;;;;;;;;;;;5134783;27;19998;-73
2022/01/07 09:32:50;;;;;;;;;;;;;;;;;;5135002;27;19915;-72
2022/01/07 09:35:16;;;;;;;;;;;;;;;;;;5135065;27;19915;-71
2022/01/07 09:37:41;;;;;;;;;;;;;;;;;;5116437;27;19926;-72
2022/01/07 09:40:07;;;;;;;;;;;;;;;;;;5135030;27;19916;-72
2022/01/07 09:42:32;;;;;;;;;;;;;;;;;;5134761;27;20284;-72
2022/01/07 09:44:57;;;;;;;;;;;;;;;;;;5116853;27;19961;-72
2022/01/07 09:47:24;;;;;;;;;;;;;;;;;;5134472;27;19924;-73
2022/01/07 09:49:52;;;;;;;;;;;;;;;;;;5131663;27;19934;-72
2022/01/07 09:52:17;;;;;;;;;;;;;;;;;;5119044;27;19928;-72
2022/01/07 09:54:43;;;;;;;;;;;;;;;;;;5134741;27;20326;-72
2022/01/07 09:57:08;;;;;;;;;;;;;;;;;;5134511;28;20376;-72
2022/01/07 09:59:34;;;;;;;;;;;;;;;;;;5134321;27;19915;-72
2022/01/07 10:02:01;;;;;;;;;;;;;;;;;;5098983;28;19973;-72
2022/01/07 10:04:40;;;;;;;;;;;;;;;;;;5131151;28;20288;-72
2022/01/07 10:07:08;;;;;;;;;;;;;;;;;;5124325;28;19916;-72
2022/01/07 10:09:33;;;;;;;;;;;;;;;;;;5098414;28;19920;-71
2022/01/07 10:12:02;;;;;;;;;;;;;;;;;;5115931;28;20002;-73
2022/01/07 10:14:30;;;;;;;;;;;;;;;;;;5122553;28;19922;-73
2022/01/07 10:16:59;;;;;;;;;;;;;;;;;;5087996;28;19916;-73
2022/01/07 10:19:30;;;;;;;;;;;;;;;;;;5124908;28;19915;-71
2022/01/07 10:22:05;;;;;;;;;;;;;;;;;;5123688;28;20396;-73
2022/01/07 10:24:30;;;;;;;;;;;;;;;;;;5122994;28;20018;-72
2022/01/07 10:27:12;;;;;;;;;;;;;;;;;;5123416;28;20342;-73
2022/01/07 10:29:42;;;;;;;;;;;;;;;;;;5123895;28;20018;-73
2022/01/07 10:32:23;;;;;;;;;;;;;;;;;;5124787;28;19959;-73
2022/01/07 10:35:04;;;;;;;;;;;;;;;;;;5122743;28;19938;-74
2022/01/07 10:37:29;;;;;;;;;;;;;;;;;;5122255;28;19916;-73
2022/01/07 10:39:55;;;;;;;;;;;;;;;;;;5123783;28;19984;-73
2022/01/07 10:42:24;;;;;;;;;;;;;;;;;;5104841;28;19939;-73
2022/01/07 10:44:59;;;;;;;;;;;;;;;;;;5122235;28;19998;-73
2022/01/07 10:47:25;;;;;;;;;;;;;;;;;;5123652;28;19998;-74
2022/01/07 10:50:11;;;;;;;;;;;;;;;;;;5122033;28;20543;-75
2022/01/07 10:52:36;;;;;;;;;;;;;;;;;;5095190;28;20384;-76
2022/01/07 10:55:09;;;;;;;;;;;;;;;;;;5113588;28;19916;-76
2022/01/07 10:57:43;;;;;;;;;;;;;;;;;;5113470;28;19938;-76
2022/01/07 11:00:09;;;;;;;;;;;;;;;;;;5113565;28;19923;-75
2022/01/07 11:02:35;;;;;;;;;;;;;;;;;;5095187;28;20350;-75
2022/01/07 11:05:01;;;;;;;;;;;;;;;;;;5133977;28;19922;-76
2022/01/07 11:07:27;;;;;;;;;;;;;;;;;;5134181;27;20301;-75
2022/01/07 11:09:54;;;;;;;;;;;;;;;;;;5115684;28;19919;-74
2022/01/07 11:12:20;;;;;;;;;;;;;;;;;;5135762;27;19923;-73
2022/01/07 11:14:45;;;;;;;;;;;;;;;;;;5137749;27;19980;-74
2022/01/07 11:17:12;;;;;;;;;;;;;;;;;;5120577;27;19921;-76
2022/01/07 11:19:41;;;;;;;;;;;;;;;;;;5137704;27;19916;-72
2022/01/07 11:22:10;;;;;;;;;;;;;;;;;;5137729;27;19960;-73
2022/01/07 11:24:40;;;;;;;;;;;;;;;;;;5137337;27;19919;-73
2022/01/07 11:27:05;;;;;;;;;;;;;;;;;;5137395;27;20045;-74
2022/01/07 11:29:31;;;;;;;;;;;;;;;;;;5137114;27;19919;-77
2022/01/07 11:32:15;;;;;;;;;;;;;;;;;;5137563;27;19955;-76
2022/01/07 11:34:40;;;;;;;;;;;;;;;;;;5118646;27;19959;-75
2022/01/07 11:37:12;;;;;;;;;;;;;;;;;;5136867;27;19947;-77
2022/01/07 11:39:41;;;;;;;;;;;;;;;;;;5137039;27;19915;-75
2022/01/07 11:42:07;;;;;;;;;;;;;;;;;;5135868;27;19958;-76
2022/01/07 11:44:33;;;;;;;;;;;;;;;;;;5136880;27;19970;-76
2022/01/07 11:47:21;;;;;;;;;;;;;;;;;;5136693;27;20356;-77
2022/01/07 11:49:58;;;;;;;;;;;;;;;;;;5137176;27;19923;-74
2022/01/07 11:52:39;;;;;;;;;;;;;;;;;;5136857;27;19959;-75
2022/01/07 11:55:20;;;;;;;;;;;;;;;;;;5118586;27;19998;-75
2022/01/07 11:57:46;;;;;;;;;;;;;;;;;;5137033;27;19978;-74
2022/01/07 12:00:11;;;;;;;;;;;;;;;;;;5136287;27;19919;-73
2022/01/07 12:02:56;;;;;;;;;;;;;;;;;;5136563;27;19916;-73
2022/01/07 12:05:28;;;;;;;;;;;;;;;;;;5118039;27;19938;-73
2022/01/07 12:07:53;;;;;;;;;;;;;;;;;;5118332;27;20017;-73
2022/01/07 12:10:20;;;;;;;;;;;;;;;;;;5136579;27;20013;-74
2022/01/07 12:12:45;;;;;;;;;;;;;;;;;;5136180;27;20111;-73
2022/01/07 12:15:11;;;;;;;;;;;;;;;;;;5136370;27;19915;-74
2022/01/07 12:17:36;;;;;;;;;;;;;;;;;;5136386;27;19976;-73
2022/01/07 12:20:19;;;;;;;;;;;;;;;;;;5136243;27;19915;-74
2022/01/07 12:22:46;;;;;;;;;;;;;;;;;;5136328;27;19916;-73
2022/01/07 12:25:11;;;;;;;;;;;;;;;;;;5136289;27;20252;-73
2022/01/07 12:27:36;;;;;;;;;;;;;;;;;;5117538;27;19916;-73
2022/01/07 12:30:02;;;;;;;;;;;;;;;;;;5135947;27;19927;-72
2022/01/07 12:32:32;;;;;;;;;;;;;;;;;;5135642;27;19915;-72
2022/01/07 12:34:57;;;;;;;;;;;;;;;;;;5136245;27;19961;-72
2022/01/07 12:37:27;;;;;;;;;;;;;;;;;;5135972;27;19915;-72
2022/01/07 12:39:54;;;;;;;;;;;;;;;;;;5135670;27;19915;-72
2022/01/07 12:42:19;;;;;;;;;;;;;;;;;;5135962;27;19922;-72
2022/01/07 12:44:52;;;;;;;;;;;;;;;;;;5136028;27;20277;-72
2022/01/07 12:47:23;;;;;;;;;;;;;;;;;;5117352;27;20064;-72
2022/01/07 12:49:49;;;;;;;;;;;;;;;;;;5135965;27;19941;-72
2022/01/07 12:52:20;;;;;;;;;;;;;;;;;;5135746;27;19959;-72
2022/01/07 12:54:52;;;;;;;;;;;;;;;;;;5135688;27;20306;-71
2022/01/07 12:57:28;;;;;;;;;;;;;;;;;;5135670;27;19915;-72
2022/01/07 13:00:04;;;;;;;;;;;;;;;;;;5135519;27;19923;-72
2022/01/07 13:02:29;;;;;;;;;;;;;;;;;;5135413;27;20441;-72
2022/01/07 13:05:08;;;;;;;;;;;;;;;;;;5135468;27;19961;-72
2022/01/07 13:07:38;;;;;;;;;;;;;;;;;;5099316;27;20138;-71
2022/01/07 13:10:04;;;;;;;;;;;;;;;;;;5135245;27;19927;-72
2022/01/07 13:12:29;;;;;;;;;;;;;;;;;;5135521;27;19916;-71
2022/01/07 13:14:54;;;;;;;;;;;;;;;;;;5135165;27;19919;-72
2022/01/07 13:17:22;;;;;;;;;;;;;;;;;;5135285;27;19938;-71
2022/01/07 13:19:49;;;;;;;;;;;;;;;;;;5135032;27;19916;-72
2022/01/07 13:22:15;;;;;;;;;;;;;;;;;;5135349;27;20444;-72
2022/01/07 13:24:40;;;;;;;;;;;;;;;;;;5135304;27;19916;-72
2022/01/07 13:27:06;;;;;;;;;;;;;;;;;;5135054;27;19920;-72
2022/01/07 13:29:32;;;;;;;;;;;;;;;;;;5135224;27;19926;-72
2022/01/07 13:32:03;;;;;;;;;;;;;;;;;;5135024;27;20368;-72
2022/01/07 13:34:32;;;;;;;;;;;;;;;;;;5134396;27;20361;-72
2022/01/07 13:37:11;;;;;;;;;;;;;;;;;;5134840;27;19916;-72
2022/01/07 13:39:43;;;;;;;;;;;;;;;;;;5134919;27;19916;-72
2022/01/07 13:42:09;;;;;;;;;;;;;;;;;;5134557;27;19976;-72
2022/01/07 13:44:48;;;;;;;;;;;;;;;;;;5134864;27;19915;-72
2022/01/07 13:47:27;;;;;;;;;;;;;;;;;;5134717;27;19976;-72
2022/01/07 13:50:04;;;;;;;;;;;;;;;;;;5134712;27;19919;-72
2022/01/07 13:52:31;;;;;;;;;;;;;;;;;;5134704;27;19922;-72
2022/01/07 13:54:57;;;;;;;;;;;;;;;;;;5134758;27;19915;-72
2022/01/07 13:57:24;;;;;;;;;;;;;;;;;;5134627;27;19923;-72
2022/01/07 13:59:50;;;;;;;;;;;;;;;;;;5134110;28;20337;-72
2022/01/07 14:02:18;;;;;;;;;;;;;;;;;;5116496;28;20067;-72
2022/01/07 14:04:45;;;;;;;;;;;;;;;;;;5116470;28;19911;-72
2022/01/07 14:07:20;;;;;;;;;;;;;;;;;;5134724;27;19911;-72
2022/01/07 14:10:00;;;;;;;;;;;;;;;;;;5134633;28;19927;-72
2022/01/07 14:12:25;;;;;;;;;;;;;;;;;;5134520;28;20038;-72
2022/01/07 14:15:01;;;;;;;;;;;;;;;;;;5116301;28;20010;-72
2022/01/07 14:17:26;;;;;;;;;;;;;;;;;;5134647;27;19919;-72
2022/01/07 14:19:55;;;;;;;;;;;;;;;;;;5134363;28;19915;-72
2022/01/07 14:22:20;;;;;;;;;;;;;;;;;;5134408;28;19916;-72
2022/01/07 14:24:46;;;;;;;;;;;;;;;;;;5116247;28;20238;-72
2022/01/07 14:27:11;;;;;;;;;;;;;;;;;;5134501;27;19947;-72
2022/01/07 14:29:36;;;;;;;;;;;;;;;;;;5134537;28;19925;-72
2022/01/07 14:32:02;;;;;;;;;;;;;;;;;;5134527;28;20259;-72
2022/01/07 14:34:27;;;;;;;;;;;;;;;;;;5134393;28;19922;-72
2022/01/07 14:36:52;;;;;;;;;;;;;;;;;;5134320;27;19961;-72
2022/01/07 14:39:18;;;;;;;;;;;;;;;;;;5134478;28;19919;-72
2022/01/07 14:41:43;;;;;;;;;;;;;;;;;;5134355;28;19942;-72
2022/01/07 14:44:08;;;;;;;;;;;;;;;;;;5133755;28;19919;-72
2022/01/07 14:46:34;;;;;;;;;;;;;;;;;;5134366;27;19963;-73
2022/01/07 14:48:59;;;;;;;;;;;;;;;;;;5138291;27;19919;-72
2022/01/07 14:51:24;;;;;;;;;;;;;;;;;;5138165;27;19922;-72
2022/01/07 14:53:50;;;;;;;;;;;;;;;;;;5138329;27;19915;-72
2022/01/07 14:56:15;;;;;;;;;;;;;;;;;;5138174;27;19919;-72
2022/01/07 14:58:40;;;;;;;;;;;;;;;;;;5138593;27;19926;-72
2022/01/07 15:01:06;;;;;;;;;;;;;;;;;;5138096;27;20379;-73
2022/01/07 15:03:32;;;;;;;;;;;;;;;;;;5138119;27;20271;-70
2022/01/07 15:05:57;;;;;;;;;;;;;;;;;;5137773;27;19916;-70
2022/01/07 15:08:23;;;;;;;;;;;;;;;;;;5136991;27;20285;-70
2022/01/07 15:10:48;;;;;;;;;;;;;;;;;;5135202;27;19923;-70
2022/01/07 15:13:14;;;;;;;;;;;;;;;;;;5136281;27;19958;-70
2022/01/07 15:18:20;;;;;;;;;;;;;;;;;;5136719;27;19915;-70
2022/01/07 15:20:45;;;;;;;;;;;;;;;;;;5137117;27;19919;-70
2022/01/07 15:23:11;;;;;;;;;;;;;;;;;;5137817;27;20322;-70
2022/01/07 15:25:36;;;;;;;;;;;;;;;;;;5133702;27;19927;-70
2022/01/07 15:28:02;;;;;;;;;;;;;;;;;;5125066;27;19949;-70
2022/01/07 15:30:27;;;;;;;;;;;;;;;;;;5126180;27;20304;-70
2022/01/07 15:32:53;;;;;;;;;;;;;;;;;;5108789;27;20008;-70
2022/01/07 15:35:19;;;;;;;;;;;;;;;;;;5125197;27;20044;-70
2022/01/07 15:37:45;;;;;;;;;;;;;;;;;;5127458;27;20376;-70
2022/01/07 15:40:10;;;;;;;;;;;;;;;;;;5108299;27;19916;-70
2022/01/07 15:42:37;;;;;;;;;;;;;;;;;;5128410;27;20000;-70
2022/01/07 15:45:03;;;;;;;;;;;;;;;;;;5131373;27;19915;-70
2022/01/07 15:47:28;;;;;;;;;;;;;;;;;;5136064;27;19984;-70
2022/01/07 15:49:53;;;;;;;;;;;;;;;;;;5136033;27;20306;-70
2022/01/07 15:52:23;;;;;;;;;;;;;;;;;;5136563;27;19921;-70
2022/01/07 15:54:49;;;;;;;;;;;;;;;;;;5136762;27;19919;-70
2022/01/07 15:57:14;;;;;;;;;;;;;;;;;;5136369;27;19915;-70
2022/01/07 15:59:39;;;;;;;;;;;;;;;;;;5136903;27;19916;-70
2022/01/07 16:02:04;;;;;;;;;;;;;;;;;;5136881;27;19923;-70
2022/01/07 16:04:30;;;;;;;;;;;;;;;;;;5136951;27;19915;-70
2022/01/07 16:06:55;;;;;;;;;;;;;;;;;;5136898;27;19958;-70
2022/01/07 16:09:21;;;;;;;;;;;;;;;;;;5136907;27;19924;-70
2022/01/07 16:11:47;;;;;;;;;;;;;;;;;;5133581;27;20207;-69
2022/01/07 16:14:12;;;;;;;;;;;;;;;;;;5121043;27;20049;-69
2022/01/07 16:16:37;;;;;;;;;;;;;;;;;;5097881;28;19916;-70
2022/01/07 16:19:04;;;;;;;;;;;;;;;;;;5115986;28;19916;-70
2022/01/07 16:21:29;;;;;;;;;;;;;;;;;;5116509;28;20030;-70
2022/01/07 16:23:55;;;;;;;;;;;;;;;;;;5116059;28;20329;-70
2022/01/07 16:26:20;;;;;;;;;;;;;;;;;;5115583;28;19922;-70
2022/01/07 16:28:46;;;;;;;;;;;;;;;;;;5115599;28;19930;-70
2022/01/07 16:31:12;;;;;;;;;;;;;;;;;;5115759;27;19969;-70
2022/01/07 16:33:37;;;;;;;;;;;;;;;;;;5135829;27;19923;-70
2022/01/07 16:36:03;;;;;;;;;;;;;;;;;;5136140;27;19920;-73
2022/01/07 16:38:28;;;;;;;;;;;;;;;;;;5136203;27;20265;-73
2022/01/07 16:40:54;;;;;;;;;;;;;;;;;;5135667;27;20284;-72
2022/01/07 16:43:20;;;;;;;;;;;;;;;;;;5133927;27;19988;-72
2022/01/07 16:45:46;;;;;;;;;;;;;;;;;;5133343;27;19919;-72
2022/01/07 16:48:12;;;;;;;;;;;;;;;;;;5135485;27;19942;-72
2022/01/07 16:50:38;;;;;;;;;;;;;;;;;;5135139;27;19943;-72
2022/01/07 16:53:03;;;;;;;;;;;;;;;;;;5135635;27;20356;-72